Terminal Aerodrome Forecast
Issued by NWS

Home | Current Version | Previous Version | Text Only | Print | Product List | Glossary On
Versions: 1 2 3 4 5 6 7 8 9 10 11 12 13 14 15 16
514
FTUS41 KPBZ 081723
TAFFKL
TAF
KFKL 081723Z 0818/0918 14012KT P6SM BKN100
     FM082000 14010KT P6SM -RA OVC035
     FM082200 18005KT 2SM -SHSN OVC006
     FM090400 27005KT P6SM -SHSN OVC010
      AMD LTD TO CLD VIS AND WIND=

USA.gov is the U.S. government's official web portal to all federal, state and local government web resources and services.